Time;durP1;ratioP1;P1;durP2;ratioP2;P2;SDS_P1;SDS_P2;PMS_P1;PMS_P2;Temp;Humidity;BMP_temperature;BMP_pressure;BME280_temperature;BME280_humidity;BME280_pressure;Samples;Min_cycle;Max_cycle;Signal;HPM_P1;HPM_P2
2024/02/03 00:02:27;;;;;;;1.02;0.60;;;;;;;;;;5061250;28;20049;-62
2024/02/03 00:04:55;;;;;;;0.50;0.50;;;;;;;;;;5055352;28;20068;-65
2024/02/03 00:07:24;;;;;;;0.60;0.50;;;;;;;;;;5058487;28;20044;-59
2024/02/03 00:09:54;;;;;;;0.50;0.50;;;;;;;;;;5059166;28;20045;-58
2024/02/03 00:12:26;;;;;;;2.28;0.52;;;;;;;;;;5056027;28;20129;-64
2024/02/03 00:14:54;;;;;;;0.73;0.60;;;;;;;;;;5060018;28;20135;-62
2024/02/03 00:17:23;;;;;;;0.60;0.60;;;;;;;;;;5060264;28;20048;-60
2024/02/03 00:19:53;;;;;;;0.40;0.40;;;;;;;;;;5059428;28;20556;-62
2024/02/03 00:22:21;;;;;;;0.82;0.57;;;;;;;;;;5058985;28;20086;-59
2024/02/03 00:24:50;;;;;;;0.50;0.50;;;;;;;;;;5060684;28;20049;-62
2024/02/03 00:27:20;;;;;;;0.50;0.50;;;;;;;;;;5068362;28;20040;-70
2024/02/03 00:29:49;;;;;;;0.40;0.40;;;;;;;;;;5069741;28;20041;-58
2024/02/03 00:32:17;;;;;;;0.45;0.45;;;;;;;;;;5067819;28;20045;-59
2024/02/03 00:34:46;;;;;;;0.50;0.50;;;;;;;;;;5068772;28;20102;-61
2024/02/03 00:37:15;;;;;;;0.40;0.40;;;;;;;;;;5068049;28;20122;-61
2024/02/03 00:39:44;;;;;;;0.60;0.57;;;;;;;;;;5066717;28;20409;-60
2024/02/03 00:42:12;;;;;;;0.40;0.40;;;;;;;;;;5069149;28;20041;-62
2024/02/03 00:44:42;;;;;;;0.80;0.50;;;;;;;;;;5068808;28;20052;-58
2024/02/03 00:47:11;;;;;;;0.43;0.43;;;;;;;;;;5066580;28;20902;-58
2024/02/03 00:49:39;;;;;;;0.60;0.40;;;;;;;;;;5068744;28;20546;-59
2024/02/03 00:52:08;;;;;;;0.50;0.50;;;;;;;;;;5069509;28;20041;-59
2024/02/03 00:54:36;;;;;;;0.40;0.40;;;;;;;;;;5068657;28;20098;-61
2024/02/03 00:57:07;;;;;;;1.40;0.40;;;;;;;;;;5067471;28;20119;-58
2024/02/03 00:59:36;;;;;;;0.43;0.43;;;;;;;;;;5067120;28;20505;-58
2024/02/03 01:02:06;;;;;;;0.50;0.50;;;;;;;;;;5068020;28;20102;-59
2024/02/03 01:04:34;;;;;;;0.73;0.50;;;;;;;;;;5067781;28;20070;-60
2024/02/03 01:07:03;;;;;;;0.50;0.50;;;;;;;;;;5068903;28;20060;-63
2024/02/03 01:09:31;;;;;;;0.65;0.40;;;;;;;;;;5069276;28;20060;-59
2024/02/03 01:12:00;;;;;;;0.40;0.40;;;;;;;;;;5068752;28;20646;-58
2024/02/03 01:14:29;;;;;;;0.50;0.50;;;;;;;;;;5067898;28;20565;-60
2024/02/03 01:16:58;;;;;;;0.70;0.60;;;;;;;;;;5067281;28;20044;-62
2024/02/03 01:19:27;;;;;;;1.02;0.50;;;;;;;;;;5067818;28;20070;-59
2024/02/03 01:21:56;;;;;;;0.40;0.40;;;;;;;;;;5066929;28;20048;-58
2024/02/03 01:24:25;;;;;;;0.60;0.60;;;;;;;;;;5070560;28;20098;-58
2024/02/03 01:26:55;;;;;;;0.65;0.60;;;;;;;;;;5067400;28;20117;-61
2024/02/03 01:29:24;;;;;;;0.45;0.45;;;;;;;;;;5066461;28;20080;-60
2024/02/03 01:31:55;;;;;;;0.40;0.40;;;;;;;;;;5064542;28;20074;-63
2024/02/03 01:34:24;;;;;;;0.40;0.40;;;;;;;;;;5067399;28;20051;-65
2024/02/03 01:36:54;;;;;;;0.60;0.40;;;;;;;;;;5067641;28;20091;-58
2024/02/03 01:39:22;;;;;;;0.47;0.47;;;;;;;;;;5064975;28;20045;-63
2024/02/03 01:41:51;;;;;;;0.68;0.50;;;;;;;;;;5069175;28;20574;-62
2024/02/03 01:44:20;;;;;;;0.45;0.45;;;;;;;;;;5061135;28;20102;-62
2024/02/03 01:46:48;;;;;;;0.40;0.40;;;;;;;;;;5056934;28;20052;-62
2024/02/03 01:49:16;;;;;;;0.40;0.40;;;;;;;;;;5058107;28;20076;-64
2024/02/03 01:51:45;;;;;;;0.40;0.40;;;;;;;;;;5058314;28;20152;-60
2024/02/03 01:54:15;;;;;;;0.80;0.75;;;;;;;;;;5058672;28;20048;-60
2024/02/03 01:56:45;;;;;;;0.65;0.50;;;;;;;;;;5052282;28;20055;-61
2024/02/03 01:59:14;;;;;;;0.40;0.40;;;;;;;;;;5058250;28;20159;-56
2024/02/03 02:01:43;;;;;;;0.45;0.40;;;;;;;;;;5057516;28;20072;-69
2024/02/03 02:04:12;;;;;;;0.50;0.50;;;;;;;;;;5059487;28;20489;-61
2024/02/03 02:06:41;;;;;;;0.50;0.50;;;;;;;;;;5056510;28;20053;-63
2024/02/03 02:09:19;;;;;;;0.60;0.50;;;;;;;;;;5056579;28;20071;-61
2024/02/03 02:11:49;;;;;;;0.50;0.50;;;;;;;;;;5056593;28;20422;-59
2024/02/03 02:14:18;;;;;;;0.50;0.50;;;;;;;;;;5057648;28;20451;-69
2024/02/03 02:16:46;;;;;;;0.50;0.50;;;;;;;;;;5054842;28;20110;-61
2024/02/03 02:19:15;;;;;;;0.40;0.40;;;;;;;;;;5056766;28;20725;-61
2024/02/03 02:21:45;;;;;;;0.50;0.50;;;;;;;;;;5058135;28;20681;-61
2024/02/03 02:24:15;;;;;;;0.60;0.60;;;;;;;;;;5062998;28;20102;-59
2024/02/03 02:26:43;;;;;;;0.52;0.52;;;;;;;;;;5065784;28;20049;-61
2024/02/03 02:29:12;;;;;;;0.50;0.50;;;;;;;;;;5065224;28;20082;-64
2024/02/03 02:31:40;;;;;;;0.50;0.50;;;;;;;;;;5066786;28;20082;-61
2024/02/03 02:34:09;;;;;;;0.45;0.45;;;;;;;;;;5066385;28;20094;-61
2024/02/03 02:36:37;;;;;;;0.40;0.40;;;;;;;;;;5061053;28;20060;-58
2024/02/03 02:39:09;;;;;;;0.88;0.55;;;;;;;;;;5066539;28;20048;-59
2024/02/03 02:41:37;;;;;;;0.57;0.50;;;;;;;;;;5065686;28;20064;-63
2024/02/03 02:44:06;;;;;;;0.82;0.60;;;;;;;;;;5065955;28;20228;-62
2024/02/03 02:46:35;;;;;;;0.47;0.45;;;;;;;;;;5063800;28;20060;-58
2024/02/03 02:49:06;;;;;;;0.60;0.50;;;;;;;;;;5066317;28;20048;-67
2024/02/03 02:51:34;;;;;;;0.50;0.50;;;;;;;;;;5064626;28;20054;-61
2024/02/03 02:54:03;;;;;;;0.45;0.45;;;;;;;;;;5067313;28;20051;-62
2024/02/03 02:56:33;;;;;;;0.60;0.52;;;;;;;;;;5068111;28;20048;-60
2024/02/03 02:59:01;;;;;;;0.55;0.50;;;;;;;;;;5063502;28;20875;-57
2024/02/03 03:01:29;;;;;;;0.38;0.32;;;;;;;;;;5061000;28;20452;-63
2024/02/03 03:03:58;;;;;;;0.73;0.45;;;;;;;;;;5060655;28;20125;-59
2024/02/03 03:06:27;;;;;;;0.50;0.50;;;;;;;;;;5065100;28;20055;-63
2024/02/03 03:08:56;;;;;;;0.43;0.40;;;;;;;;;;5066849;28;20048;-61
2024/02/03 03:11:24;;;;;;;0.43;0.43;;;;;;;;;;5066968;28;20133;-65
2024/02/03 03:13:56;;;;;;;0.40;0.40;;;;;;;;;;5067015;28;20048;-58
2024/02/03 03:16:25;;;;;;;0.60;0.60;;;;;;;;;;5066187;28;20127;-59
2024/02/03 03:18:53;;;;;;;1.13;0.80;;;;;;;;;;5066025;28;20623;-63
2024/02/03 03:21:22;;;;;;;1.05;0.80;;;;;;;;;;5065522;28;20077;-61
2024/02/03 03:23:50;;;;;;;2.67;1.90;;;;;;;;;;5068555;28;20048;-58
2024/02/03 03:26:19;;;;;;;3.75;1.67;;;;;;;;;;5071439;28;20056;-59
2024/02/03 03:28:47;;;;;;;2.50;1.80;;;;;;;;;;5072552;28;20052;-59
2024/02/03 03:31:17;;;;;;;2.85;2.00;;;;;;;;;;5068436;28;20044;-68
2024/02/03 03:33:45;;;;;;;3.55;2.03;;;;;;;;;;5068100;28;20455;-60
2024/02/03 03:36:14;;;;;;;11.32;2.95;;;;;;;;;;5070050;28;20090;-58
2024/02/03 03:38:43;;;;;;;3.80;2.42;;;;;;;;;;5069010;28;20058;-60
2024/02/03 03:41:11;;;;;;;2.97;2.10;;;;;;;;;;5059064;28;20044;-60
2024/02/03 03:43:40;;;;;;;2.42;1.63;;;;;;;;;;5056886;28;20045;-61
2024/02/03 03:46:08;;;;;;;2.42;1.70;;;;;;;;;;5060116;28;20072;-59
2024/02/03 03:48:38;;;;;;;2.00;1.52;;;;;;;;;;5063043;28;20106;-61
2024/02/03 03:51:07;;;;;;;2.25;1.45;;;;;;;;;;5060905;28;20497;-59
2024/02/03 03:53:35;;;;;;;2.08;1.33;;;;;;;;;;5061726;28;20534;-61
2024/02/03 03:56:04;;;;;;;1.25;1.15;;;;;;;;;;5059982;28;20431;-64
2024/02/03 03:58:32;;;;;;;2.00;1.40;;;;;;;;;;5056869;28;20475;-63
2024/02/03 04:01:00;;;;;;;1.20;1.10;;;;;;;;;;5060777;28;20045;-62
2024/02/03 04:03:29;;;;;;;1.27;1.17;;;;;;;;;;5058157;28;20036;-71
2024/02/03 04:05:59;;;;;;;1.25;1.15;;;;;;;;;;5060761;28;20044;-58
2024/02/03 04:08:27;;;;;;;2.15;1.23;;;;;;;;;;5059282;28;20114;-71
2024/02/03 04:10:55;;;;;;;2.50;0.98;;;;;;;;;;5058181;28;20064;-62
2024/02/03 04:13:24;;;;;;;1.58;1.00;;;;;;;;;;5055942;28;20122;-64
2024/02/03 04:15:53;;;;;;;1.40;1.08;;;;;;;;;;5059914;28;20137;-64
2024/02/03 04:18:21;;;;;;;1.77;1.17;;;;;;;;;;5059435;28;20501;-57
2024/02/03 04:20:50;;;;;;;1.30;0.80;;;;;;;;;;5059072;28;20044;-70
2024/02/03 04:23:20;;;;;;;1.15;0.80;;;;;;;;;;5062827;28;20051;-58
2024/02/03 04:25:48;;;;;;;2.10;1.17;;;;;;;;;;5064258;28;20064;-61
2024/02/03 04:28:16;;;;;;;2.83;1.40;;;;;;;;;;5065139;28;20541;-61
2024/02/03 04:30:45;;;;;;;2.33;1.35;;;;;;;;;;5070293;28;20057;-58
2024/02/03 04:33:13;;;;;;;1.77;1.23;;;;;;;;;;5067915;28;20521;-59
2024/02/03 04:35:42;;;;;;;1.80;1.20;;;;;;;;;;5067924;28;20509;-62
2024/02/03 04:38:10;;;;;;;1.48;0.95;;;;;;;;;;5065203;28;20052;-61
2024/02/03 04:40:40;;;;;;;2.25;1.00;;;;;;;;;;5067953;28;20049;-58
2024/02/03 04:43:08;;;;;;;0.82;0.63;;;;;;;;;;5062649;28;20549;-60
2024/02/03 04:45:37;;;;;;;1.00;0.90;;;;;;;;;;5071144;28;20052;-60
2024/02/03 04:48:06;;;;;;;1.10;0.98;;;;;;;;;;5068289;28;20130;-59
2024/02/03 04:50:34;;;;;;;1.58;0.77;;;;;;;;;;5070292;28;20106;-64
2024/02/03 04:53:02;;;;;;;0.95;0.77;;;;;;;;;;5068374;28;20053;-59
2024/02/03 04:55:31;;;;;;;0.98;0.73;;;;;;;;;;5069575;28;20080;-59
2024/02/03 04:58:01;;;;;;;1.23;0.90;;;;;;;;;;5065438;28;20123;-62
2024/02/03 05:00:29;;;;;;;1.35;0.77;;;;;;;;;;5066271;28;20311;-61
2024/02/03 05:02:57;;;;;;;0.82;0.82;;;;;;;;;;5067452;28;20082;-63
2024/02/03 05:05:27;;;;;;;1.45;0.80;;;;;;;;;;5059923;28;20072;-66
2024/02/03 05:07:55;;;;;;;1.13;0.70;;;;;;;;;;5057898;28;20060;-71
2024/02/03 05:10:24;;;;;;;1.10;0.90;;;;;;;;;;5059855;28;20508;-62
2024/02/03 05:12:52;;;;;;;1.52;0.90;;;;;;;;;;5054742;28;20489;-60
2024/02/03 05:15:22;;;;;;;0.85;0.70;;;;;;;;;;5060796;28;20040;-62
2024/02/03 05:17:50;;;;;;;0.98;0.90;;;;;;;;;;5057210;28;20045;-58
2024/02/03 05:20:19;;;;;;;0.70;0.70;;;;;;;;;;5058266;28;20041;-72
2024/02/03 05:22:48;;;;;;;2.05;0.80;;;;;;;;;;5057579;28;20053;-70
2024/02/03 05:25:16;;;;;;;0.73;0.73;;;;;;;;;;5059546;28;20336;-61
2024/02/03 05:27:45;;;;;;;0.63;0.63;;;;;;;;;;5055682;28;20442;-63
2024/02/03 05:30:14;;;;;;;1.08;0.90;;;;;;;;;;5058591;28;20075;-59
2024/02/03 05:32:44;;;;;;;0.73;0.70;;;;;;;;;;5057009;28;20418;-60
2024/02/03 05:35:12;;;;;;;0.95;0.60;;;;;;;;;;5056046;28;20075;-60
2024/02/03 05:37:42;;;;;;;0.50;0.50;;;;;;;;;;5051679;28;20052;-63
2024/02/03 05:40:10;;;;;;;0.50;0.50;;;;;;;;;;5059362;28;20065;-64
2024/02/03 05:42:39;;;;;;;0.50;0.50;;;;;;;;;;5057190;28;20048;-70
2024/02/03 05:45:08;;;;;;;0.77;0.65;;;;;;;;;;5057748;28;20048;-58
2024/02/03 05:47:36;;;;;;;0.52;0.52;;;;;;;;;;5054197;28;20102;-64
2024/02/03 05:50:07;;;;;;;0.68;0.68;;;;;;;;;;5061610;28;20033;-66
2024/02/03 05:52:35;;;;;;;0.63;0.63;;;;;;;;;;5062280;28;20559;-64
2024/02/03 05:55:04;;;;;;;0.75;0.60;;;;;;;;;;5056767;28;20109;-57
2024/02/03 05:57:32;;;;;;;0.57;0.57;;;;;;;;;;5057783;28;20052;-58
2024/02/03 06:00:01;;;;;;;0.60;0.57;;;;;;;;;;5056177;28;20040;-58
2024/02/03 06:02:31;;;;;;;0.60;0.60;;;;;;;;;;5055434;28;20047;-58
2024/02/03 06:04:59;;;;;;;0.60;0.60;;;;;;;;;;5056244;28;20114;-61
2024/02/03 06:07:29;;;;;;;0.50;0.50;;;;;;;;;;5057893;28;20048;-59
2024/02/03 06:09:57;;;;;;;0.80;0.70;;;;;;;;;;5056492;28;20053;-63
2024/02/03 06:12:26;;;;;;;0.57;0.57;;;;;;;;;;5057696;28;20095;-60
2024/02/03 06:14:54;;;;;;;0.68;0.60;;;;;;;;;;5057962;28;20322;-61
2024/02/03 06:17:22;;;;;;;1.20;0.80;;;;;;;;;;5054457;28;20128;-60
2024/02/03 06:19:52;;;;;;;0.60;0.60;;;;;;;;;;5056767;28;20048;-68
2024/02/03 06:22:20;;;;;;;0.50;0.50;;;;;;;;;;5054471;28;20143;-57
2024/02/03 06:24:50;;;;;;;0.90;0.60;;;;;;;;;;5055157;28;20045;-62
2024/02/03 06:27:19;;;;;;;0.70;0.60;;;;;;;;;;5056375;28;20125;-58
2024/02/03 06:29:48;;;;;;;0.80;0.50;;;;;;;;;;5057103;28;20129;-62
2024/02/03 06:32:16;;;;;;;0.60;0.60;;;;;;;;;;5054971;28;20045;-57
2024/02/03 06:34:44;;;;;;;1.40;0.70;;;;;;;;;;5054105;28;20535;-58
2024/02/03 06:37:13;;;;;;;0.55;0.55;;;;;;;;;;5066442;28;20067;-58
2024/02/03 06:39:41;;;;;;;1.13;0.60;;;;;;;;;;5065027;28;20045;-59
2024/02/03 06:42:11;;;;;;;1.95;0.80;;;;;;;;;;5066469;28;20068;-64
2024/02/03 06:44:40;;;;;;;1.35;0.63;;;;;;;;;;5067557;28;20058;-58
2024/02/03 06:47:08;;;;;;;0.55;0.52;;;;;;;;;;5066655;28;20045;-63
2024/02/03 06:49:37;;;;;;;1.85;0.80;;;;;;;;;;5068404;28;20090;-61
2024/02/03 06:52:06;;;;;;;0.70;0.63;;;;;;;;;;5067910;28;20071;-62
2024/02/03 06:54:34;;;;;;;0.93;0.80;;;;;;;;;;5058140;28;20456;-63
2024/02/03 06:57:02;;;;;;;0.63;0.60;;;;;;;;;;5067751;28;20051;-62
2024/02/03 06:59:32;;;;;;;0.90;0.70;;;;;;;;;;5061420;28;20072;-61
2024/02/03 07:02:00;;;;;;;1.27;0.70;;;;;;;;;;5061231;28;20076;-60
2024/02/03 07:04:29;;;;;;;1.25;0.90;;;;;;;;;;5055045;28;21449;-67
2024/02/03 07:06:58;;;;;;;1.80;0.90;;;;;;;;;;5057351;28;20063;-62
2024/02/03 07:09:26;;;;;;;0.70;0.50;;;;;;;;;;5055829;28;20063;-61
2024/02/03 07:11:54;;;;;;;1.25;0.73;;;;;;;;;;5058389;28;20060;-60
2024/02/03 07:14:35;;;;;;;1.20;0.63;;;;;;;;;;5058517;28;20058;-60
2024/02/03 07:17:04;;;;;;;0.63;0.63;;;;;;;;;;5054132;28;20548;-61
2024/02/03 07:19:32;;;;;;;1.45;1.15;;;;;;;;;;5054074;28;20106;-64
2024/02/03 07:22:01;;;;;;;0.60;0.60;;;;;;;;;;5053940;28;20076;-60
2024/02/03 07:24:31;;;;;;;1.45;0.80;;;;;;;;;;5053466;28;20512;-64
2024/02/03 07:26:59;;;;;;;2.33;0.80;;;;;;;;;;5054499;28;20072;-68
2024/02/03 07:29:27;;;;;;;1.08;0.70;;;;;;;;;;5056383;28;20056;-68
2024/02/03 07:32:01;;;;;;;0.65;0.60;;;;;;;;;;5056444;28;20137;-61
2024/02/03 07:34:30;;;;;;;2.05;0.73;;;;;;;;;;5056687;28;20127;-59
2024/02/03 07:36:58;;;;;;;0.70;0.70;;;;;;;;;;5055962;28;20056;-62
2024/02/03 07:39:27;;;;;;;0.90;0.70;;;;;;;;;;5058007;28;20139;-70
2024/02/03 07:41:55;;;;;;;0.70;0.60;;;;;;;;;;5056232;28;20056;-59
2024/02/03 07:44:24;;;;;;;1.40;0.70;;;;;;;;;;5055386;28;20052;-62
2024/02/03 07:46:52;;;;;;;0.60;0.60;;;;;;;;;;5055387;28;20658;-59
2024/02/03 07:49:22;;;;;;;1.52;0.70;;;;;;;;;;5062978;28;20542;-58
2024/02/03 07:51:51;;;;;;;2.00;0.88;;;;;;;;;;5066938;28;20190;-59
2024/02/03 07:54:20;;;;;;;1.85;0.80;;;;;;;;;;5066249;28;20083;-60
2024/02/03 07:56:48;;;;;;;1.40;0.80;;;;;;;;;;5058046;28;20541;-59
2024/02/03 07:59:16;;;;;;;0.70;0.70;;;;;;;;;;5065897;28;20113;-63
2024/02/03 08:01:45;;;;;;;1.48;0.73;;;;;;;;;;5065752;28;20036;-59
2024/02/03 08:04:13;;;;;;;0.90;0.90;;;;;;;;;;5066443;28;20140;-60
2024/02/03 08:06:43;;;;;;;1.05;0.73;;;;;;;;;;5066790;28;20064;-60
2024/02/03 08:09:12;;;;;;;1.13;0.70;;;;;;;;;;5066086;28;20048;-61
2024/02/03 08:11:40;;;;;;;0.95;0.88;;;;;;;;;;5065610;28;20485;-59
2024/02/03 08:14:09;;;;;;;2.85;0.90;;;;;;;;;;5070574;28;20064;-59
2024/02/03 08:16:37;;;;;;;0.60;0.60;;;;;;;;;;5071246;28;20126;-61
2024/02/03 08:19:06;;;;;;;0.95;0.77;;;;;;;;;;5066015;28;20048;-61
2024/02/03 08:21:35;;;;;;;1.17;1.08;;;;;;;;;;5069578;28;20056;-59
2024/02/03 08:24:06;;;;;;;0.63;0.60;;;;;;;;;;5070392;28;20040;-58
2024/02/03 08:26:34;;;;;;;1.27;0.70;;;;;;;;;;5070449;28;20048;-59
2024/02/03 08:29:02;;;;;;;1.38;0.85;;;;;;;;;;5069697;28;20048;-58
2024/02/03 08:31:31;;;;;;;0.65;0.63;;;;;;;;;;5063491;28;20044;-62
2024/02/03 08:33:59;;;;;;;1.35;0.90;;;;;;;;;;5070970;28;20528;-61
2024/02/03 08:36:28;;;;;;;0.70;0.68;;;;;;;;;;5066553;28;20056;-59
2024/02/03 08:38:57;;;;;;;3.83;1.02;;;;;;;;;;5069520;28;20426;-59
2024/02/03 08:41:26;;;;;;;2.35;0.80;;;;;;;;;;5070722;28;20041;-61
2024/02/03 08:43:55;;;;;;;2.17;0.90;;;;;;;;;;5069653;28;20094;-60
2024/02/03 08:46:23;;;;;;;1.55;0.90;;;;;;;;;;5069079;28;20057;-62
2024/02/03 08:48:52;;;;;;;2.15;0.90;;;;;;;;;;5069280;28;20052;-59
2024/02/03 08:51:20;;;;;;;4.75;0.85;;;;;;;;;;5067138;28;20102;-61
2024/02/03 08:53:49;;;;;;;4.45;1.08;;;;;;;;;;5067905;28;20405;-58
2024/02/03 08:56:20;;;;;;;1.75;0.77;;;;;;;;;;5068089;28;20041;-60
2024/02/03 08:58:50;;;;;;;1.35;0.70;;;;;;;;;;5061649;28;20501;-62
2024/02/03 09:01:18;;;;;;;0.82;0.60;;;;;;;;;;5069146;28;20044;-59
2024/02/03 09:03:46;;;;;;;1.77;0.95;;;;;;;;;;5067902;28;20402;-73
2024/02/03 09:06:15;;;;;;;0.70;0.70;;;;;;;;;;5066427;28;20144;-65
2024/02/03 09:08:44;;;;;;;0.90;0.77;;;;;;;;;;5067139;28;20110;-60
2024/02/03 09:11:12;;;;;;;1.77;0.80;;;;;;;;;;5067594;28;20110;-59
2024/02/03 09:13:40;;;;;;;0.70;0.60;;;;;;;;;;5066412;28;20044;-59
2024/02/03 09:16:10;;;;;;;1.85;0.63;;;;;;;;;;5071123;28;20060;-59
2024/02/03 09:18:39;;;;;;;0.90;0.70;;;;;;;;;;5069593;28;20052;-62
2024/02/03 09:21:09;;;;;;;1.65;0.90;;;;;;;;;;5070645;28;20055;-59
2024/02/03 09:23:39;;;;;;;1.00;0.70;;;;;;;;;;5061198;28;20504;-61
2024/02/03 09:26:08;;;;;;;0.68;0.68;;;;;;;;;;5065154;28;20079;-62
2024/02/03 09:28:37;;;;;;;0.90;0.70;;;;;;;;;;5069437;28;20098;-59
2024/02/03 09:31:06;;;;;;;1.10;0.90;;;;;;;;;;5063812;28;20044;-58
2024/02/03 09:33:36;;;;;;;1.08;0.70;;;;;;;;;;5068334;28;20051;-68
2024/02/03 09:36:05;;;;;;;0.70;0.68;;;;;;;;;;5067103;28;20106;-61
2024/02/03 09:38:34;;;;;;;0.60;0.60;;;;;;;;;;5065536;28;20516;-61
2024/02/03 09:41:02;;;;;;;2.25;0.82;;;;;;;;;;5066449;28;20547;-58
2024/02/03 09:43:31;;;;;;;1.02;0.77;;;;;;;;;;5065379;28;20477;-58
2024/02/03 09:45:59;;;;;;;0.90;0.75;;;;;;;;;;5067946;28;20056;-62
2024/02/03 09:48:28;;;;;;;1.45;0.80;;;;;;;;;;5067340;28;20093;-66
2024/02/03 09:50:58;;;;;;;0.80;0.80;;;;;;;;;;5066205;28;20052;-60
2024/02/03 09:53:27;;;;;;;2.67;0.73;;;;;;;;;;5066314;28;20110;-59
2024/02/03 09:55:57;;;;;;;0.93;0.80;;;;;;;;;;5059195;28;20052;-73
2024/02/03 09:58:26;;;;;;;0.70;0.60;;;;;;;;;;5055669;28;20048;-60
2024/02/03 10:00:54;;;;;;;1.98;1.00;;;;;;;;;;5056626;28;20040;-61
2024/02/03 10:03:23;;;;;;;1.30;0.80;;;;;;;;;;5057683;28;20068;-63
2024/02/03 10:05:53;;;;;;;2.40;1.02;;;;;;;;;;5056541;28;20131;-61
2024/02/03 10:08:22;;;;;;;1.17;0.88;;;;;;;;;;5053520;28;20041;-61
2024/02/03 10:10:53;;;;;;;0.80;0.80;;;;;;;;;;5056933;28;20491;-64
2024/02/03 10:13:22;;;;;;;0.77;0.68;;;;;;;;;;5057460;28;20044;-62
2024/02/03 10:15:59;;;;;;;1.10;0.80;;;;;;;;;;5058298;28;20048;-63
2024/02/03 10:18:28;;;;;;;1.08;0.82;;;;;;;;;;5066386;28;20102;-62
2024/02/03 10:20:56;;;;;;;1.00;0.90;;;;;;;;;;5069314;28;20134;-64
2024/02/03 10:23:26;;;;;;;0.95;0.85;;;;;;;;;;5067667;28;20056;-64
2024/02/03 10:25:58;;;;;;;1.23;0.90;;;;;;;;;;5066384;28;20044;-64
2024/02/03 10:28:26;;;;;;;0.80;0.80;;;;;;;;;;5065946;28;20037;-63
2024/02/03 10:30:56;;;;;;;3.08;0.88;;;;;;;;;;5067841;28;20049;-67
2024/02/03 10:33:29;;;;;;;1.17;1.00;;;;;;;;;;5064152;28;20048;-61
2024/02/03 10:35:58;;;;;;;1.17;1.02;;;;;;;;;;5064018;28;20075;-60
2024/02/03 10:38:28;;;;;;;2.15;0.95;;;;;;;;;;5067726;28;20496;-62
2024/02/03 10:40:56;;;;;;;2.03;0.90;;;;;;;;;;5065847;28;20090;-60
2024/02/03 10:43:26;;;;;;;1.10;0.80;;;;;;;;;;5068764;28;20434;-62
2024/02/03 10:45:58;;;;;;;1.20;0.90;;;;;;;;;;5063940;28;20094;-64
2024/02/03 10:48:28;;;;;;;1.08;0.95;;;;;;;;;;5066246;28;20083;-63
2024/02/03 10:50:59;;;;;;;0.85;0.80;;;;;;;;;;5067323;28;20660;-61
2024/02/03 10:53:30;;;;;;;1.20;1.00;;;;;;;;;;5069345;28;20512;-59
2024/02/03 10:56:01;;;;;;;0.80;0.80;;;;;;;;;;5067856;28;20105;-60
2024/02/03 10:58:31;;;;;;;1.38;0.90;;;;;;;;;;5059668;28;20079;-61
2024/02/03 11:01:01;;;;;;;1.30;1.10;;;;;;;;;;5066663;28;20117;-61
2024/02/03 11:03:31;;;;;;;1.38;1.00;;;;;;;;;;5067255;28;20049;-62
2024/02/03 11:05:59;;;;;;;1.25;0.70;;;;;;;;;;5068710;28;20133;-63
2024/02/03 11:08:33;;;;;;;2.20;1.00;;;;;;;;;;5065842;28;20055;-65
2024/02/03 11:11:01;;;;;;;1.75;1.08;;;;;;;;;;5067149;28;20049;-61
2024/02/03 11:13:30;;;;;;;1.73;1.10;;;;;;;;;;5067562;28;20044;-59
2024/02/03 11:15:59;;;;;;;1.23;0.68;;;;;;;;;;5067701;28;20048;-59
2024/02/03 11:18:28;;;;;;;2.00;1.02;;;;;;;;;;5066681;28;20045;-59
2024/02/03 11:21:05;;;;;;;0.90;0.80;;;;;;;;;;5059322;28;20516;-61
2024/02/03 11:23:35;;;;;;;1.50;1.00;;;;;;;;;;5064575;28;20059;-64
2024/02/03 11:26:04;;;;;;;1.05;0.80;;;;;;;;;;5065969;28;20478;-60
2024/02/03 11:28:33;;;;;;;0.77;0.70;;;;;;;;;;5066220;28;20584;-57
2024/02/03 11:31:02;;;;;;;1.05;0.82;;;;;;;;;;5067838;28;20118;-57
2024/02/03 11:33:30;;;;;;;1.55;1.10;;;;;;;;;;5063140;28;20075;-62
2024/02/03 11:36:00;;;;;;;1.35;0.90;;;;;;;;;;5062846;28;20056;-60
2024/02/03 11:38:28;;;;;;;0.80;0.77;;;;;;;;;;5067179;28;20048;-61
2024/02/03 11:40:58;;;;;;;1.67;0.93;;;;;;;;;;5063657;28;20045;-64
2024/02/03 11:43:29;;;;;;;0.75;0.68;;;;;;;;;;5065877;28;20048;-65
2024/02/03 11:46:00;;;;;;;0.95;0.70;;;;;;;;;;5057478;28;20044;-63
2024/02/03 11:48:28;;;;;;;1.52;0.85;;;;;;;;;;5067872;28;20122;-64
2024/02/03 11:50:57;;;;;;;1.25;0.82;;;;;;;;;;5069049;28;20476;-66
2024/02/03 11:53:26;;;;;;;1.25;0.90;;;;;;;;;;5071924;28;20310;-67
2024/02/03 11:55:56;;;;;;;2.42;1.08;;;;;;;;;;5070743;28;20513;-65
2024/02/03 11:58:26;;;;;;;5.18;0.82;;;;;;;;;;5064395;28;20041;-67
2024/02/03 12:01:04;;;;;;;1.17;0.82;;;;;;;;;;5065198;28;20650;-66
2024/02/03 12:03:32;;;;;;;0.65;0.60;;;;;;;;;;5070049;28;20324;-66
2024/02/03 12:06:01;;;;;;;0.80;0.70;;;;;;;;;;5071373;28;20501;-66
2024/02/03 12:08:29;;;;;;;1.33;0.70;;;;;;;;;;5069982;28;20045;-66
2024/02/03 12:10:58;;;;;;;1.35;0.82;;;;;;;;;;5071024;28;20056;-66
2024/02/03 12:13:34;;;;;;;1.70;0.95;;;;;;;;;;5069716;28;20117;-68
2024/02/03 12:16:03;;;;;;;0.82;0.68;;;;;;;;;;5070007;28;20728;-66
2024/02/03 12:18:31;;;;;;;1.35;1.10;;;;;;;;;;5070131;28;20517;-67
2024/02/03 12:21:00;;;;;;;2.20;0.95;;;;;;;;;;5071301;28;20048;-66
2024/02/03 12:23:29;;;;;;;1.33;0.95;;;;;;;;;;5067040;28;20460;-65
2024/02/03 12:25:57;;;;;;;2.65;0.85;;;;;;;;;;5069000;28;20101;-66
2024/02/03 12:28:27;;;;;;;1.98;0.90;;;;;;;;;;5067893;28;20056;-64
2024/02/03 12:31:00;;;;;;;1.58;0.70;;;;;;;;;;5069660;28;20572;-66
2024/02/03 12:33:29;;;;;;;1.02;0.90;;;;;;;;;;5068969;28;20047;-66
2024/02/03 12:35:57;;;;;;;1.42;1.13;;;;;;;;;;5068872;28;20044;-65
2024/02/03 12:38:26;;;;;;;1.30;0.85;;;;;;;;;;5068118;28;20052;-66
2024/02/03 12:40:54;;;;;;;1.45;0.90;;;;;;;;;;5071524;28;20168;-66
2024/02/03 12:43:23;;;;;;;1.50;1.00;;;;;;;;;;5071591;28;20056;-66
2024/02/03 12:45:52;;;;;;;1.33;0.70;;;;;;;;;;5069789;28;20049;-65
2024/02/03 12:48:21;;;;;;;1.02;0.80;;;;;;;;;;5066987;28;20048;-65
2024/02/03 12:50:51;;;;;;;1.05;0.75;;;;;;;;;;5066967;28;20674;-65
2024/02/03 12:53:20;;;;;;;1.15;0.80;;;;;;;;;;5070974;28;20040;-65
2024/02/03 12:55:49;;;;;;;0.80;0.75;;;;;;;;;;5069789;28;20443;-66
2024/02/03 12:58:17;;;;;;;1.17;0.80;;;;;;;;;;5069726;28;20558;-66
2024/02/03 13:00:46;;;;;;;1.17;0.90;;;;;;;;;;5065790;28;20451;-65
2024/02/03 13:03:16;;;;;;;1.85;0.82;;;;;;;;;;5065231;28;20045;-65
2024/02/03 13:05:47;;;;;;;1.15;0.73;;;;;;;;;;5069235;28;20508;-66
2024/02/03 13:08:16;;;;;;;1.17;0.88;;;;;;;;;;5065387;28;20045;-66
2024/02/03 13:10:45;;;;;;;4.30;0.90;;;;;;;;;;5068526;28;20063;-68
2024/02/03 13:13:14;;;;;;;2.38;0.60;;;;;;;;;;5069461;28;20055;-66
2024/02/03 13:15:43;;;;;;;0.73;0.73;;;;;;;;;;5069000;28;20057;-67
2024/02/03 13:18:12;;;;;;;1.25;0.80;;;;;;;;;;5059442;28;20049;-67
2024/02/03 13:20:41;;;;;;;0.60;0.60;;;;;;;;;;5068353;28;20048;-69
2024/02/03 13:23:10;;;;;;;2.92;0.73;;;;;;;;;;5068662;28;20173;-66
2024/02/03 13:25:38;;;;;;;1.10;0.60;;;;;;;;;;5067404;28;20041;-68
2024/02/03 13:28:07;;;;;;;1.15;0.80;;;;;;;;;;5064870;28;20106;-67
2024/02/03 13:30:35;;;;;;;0.73;0.70;;;;;;;;;;5062929;28;20098;-66
2024/02/03 13:33:04;;;;;;;2.17;0.90;;;;;;;;;;5065591;28;20075;-67
2024/02/03 13:35:33;;;;;;;0.65;0.65;;;;;;;;;;5067399;28;20048;-66
2024/02/03 13:38:04;;;;;;;2.03;0.80;;;;;;;;;;5066723;28;20056;-67
2024/02/03 13:40:32;;;;;;;0.80;0.70;;;;;;;;;;5064447;28;20476;-67
2024/02/03 13:43:01;;;;;;;5.50;0.90;;;;;;;;;;5067209;28;20044;-67
2024/02/03 13:45:30;;;;;;;1.00;0.73;;;;;;;;;;5065399;28;20143;-68
2024/02/03 13:48:00;;;;;;;1.63;0.90;;;;;;;;;;5064787;28;20206;-67
2024/02/03 13:50:28;;;;;;;1.25;0.90;;;;;;;;;;5065747;28;20086;-68
2024/02/03 13:52:57;;;;;;;0.75;0.70;;;;;;;;;;5068049;28;20041;-67
2024/02/03 13:55:26;;;;;;;0.77;0.70;;;;;;;;;;5068435;28;20048;-67
2024/02/03 13:57:55;;;;;;;1.00;0.70;;;;;;;;;;5064538;28;20048;-67
2024/02/03 14:00:23;;;;;;;0.63;0.60;;;;;;;;;;5063335;28;20094;-66
2024/02/03 14:02:52;;;;;;;2.67;0.80;;;;;;;;;;5064777;28;20486;-67
2024/02/03 14:05:20;;;;;;;1.10;0.80;;;;;;;;;;5066425;28;20048;-67
2024/02/03 14:07:49;;;;;;;0.80;0.70;;;;;;;;;;5065853;28;20489;-69
2024/02/03 14:10:18;;;;;;;0.95;0.60;;;;;;;;;;5063847;28;20040;-67
2024/02/03 14:12:48;;;;;;;0.75;0.70;;;;;;;;;;5068012;28;20064;-68
2024/02/03 14:15:16;;;;;;;0.60;0.60;;;;;;;;;;5068236;28;20041;-66
2024/02/03 14:17:45;;;;;;;0.70;0.50;;;;;;;;;;5067014;28;20573;-67
2024/02/03 14:20:14;;;;;;;1.60;0.80;;;;;;;;;;5067490;28;20051;-67
2024/02/03 14:22:43;;;;;;;0.68;0.60;;;;;;;;;;5068069;28;20131;-67
2024/02/03 14:25:14;;;;;;;0.80;0.60;;;;;;;;;;5065244;28;20094;-68
2024/02/03 14:27:42;;;;;;;1.50;0.95;;;;;;;;;;5066754;28;20141;-68
2024/02/03 14:30:13;;;;;;;1.85;0.90;;;;;;;;;;5064332;28;20063;-69
2024/02/03 14:32:41;;;;;;;2.13;0.60;;;;;;;;;;5065389;28;20502;-66
2024/02/03 14:35:10;;;;;;;1.55;0.60;;;;;;;;;;5067185;28;20040;-68
2024/02/03 14:37:40;;;;;;;1.10;0.77;;;;;;;;;;5068162;28;20080;-69
2024/02/03 14:40:08;;;;;;;2.13;0.75;;;;;;;;;;5062304;28;20134;-67
2024/02/03 14:42:37;;;;;;;1.33;0.70;;;;;;;;;;5066743;28;20054;-67
2024/02/03 14:45:06;;;;;;;0.65;0.60;;;;;;;;;;5068295;28;20052;-65
2024/02/03 14:47:36;;;;;;;1.27;1.08;;;;;;;;;;5061963;28;20138;-65
2024/02/03 14:50:05;;;;;;;1.20;0.75;;;;;;;;;;5066321;28;20052;-66
2024/02/03 14:52:35;;;;;;;1.85;1.00;;;;;;;;;;5068510;28;20076;-67
2024/02/03 14:55:04;;;;;;;0.80;0.68;;;;;;;;;;5066808;28;20048;-69